Time;durP1;ratioP1;P1;durP2;ratioP2;P2;SDS_P1;SDS_P2;PMS_P1;PMS_P2;Temp;Humidity;BMP_temperature;BMP_pressure;BME280_temperature;BME280_humidity;BME280_pressure;Samples;Min_cycle;Max_cycle;Signal;HPM_P1;HPM_P2
2022/11/11 00:00:25;;;;;;;14.63;9.32;;;7.00;99.90;;;;;;5083462;28;20653;-73
2022/11/11 00:02:50;;;;;;;16.65;8.98;;;7.00;99.90;;;;;;5084501;28;20274;-73
2022/11/11 00:05:16;;;;;;;17.70;9.25;;;7.10;99.90;;;;;;5078998;28;20176;-73
2022/11/11 00:07:42;;;;;;;29.55;9.70;;;7.20;99.90;;;;;;5080688;28;20242;-73
2022/11/11 00:10:09;;;;;;;23.13;9.05;;;7.20;99.90;;;;;;5080771;28;20223;-73
2022/11/11 00:12:34;;;;;;;57.85;11.57;;;7.10;99.90;;;;;;5079643;28;20178;-72
2022/11/11 00:15:00;;;;;;;38.22;11.45;;;7.20;99.90;;;;;;5075590;28;20171;-72
2022/11/11 00:25:38;;;;;;;63.47;10.55;;;6.90;99.90;;;;;;5072385;28;20274;-72
2022/11/11 00:28:04;;;;;;;10.07;9.05;;;6.80;99.90;;;;;;5072468;28;20281;-73
2022/11/11 00:30:30;;;;;;;10.10;8.68;;;6.80;99.90;;;;;;5073918;28;20220;-73
2022/11/11 00:32:55;;;;;;;18.95;8.75;;;6.80;99.90;;;;;;5085568;28;20176;-73
2022/11/11 00:38:44;;;;;;;21.95;9.52;;;6.70;99.90;;;;;;5086017;28;20205;-73
2022/11/11 00:40:57;;;;;;;22.13;9.38;;;6.70;99.90;;;;;;5075002;28;20239;-73
2022/11/11 00:43:22;;;;;;;9.50;8.43;;;6.70;99.90;;;;;;5083818;28;20175;-73
2022/11/11 00:45:48;;;;;;;21.65;8.95;;;6.80;99.90;;;;;;5081022;28;20201;-73
2022/11/11 00:50:58;;;;;;;38.90;10.57;;;6.80;99.90;;;;;;5082860;28;20758;-73
2022/11/11 00:53:26;;;;;;;31.08;9.85;;;6.60;99.90;;;;;;5085171;28;20179;-73
2022/11/11 00:55:52;;;;;;;36.42;9.48;;;6.60;99.90;;;;;;5085024;28;20186;-73
2022/11/11 00:58:18;;;;;;;9.65;8.73;;;6.60;99.90;;;;;;5078274;28;20209;-73
2022/11/11 01:00:44;;;;;;;22.95;8.98;;;6.70;99.90;;;;;;5071710;28;20179;-73
2022/11/11 01:03:09;;;;;;;23.65;10.85;;;6.70;99.90;;;;;;5075030;28;20179;-73
2022/11/11 01:05:38;;;;;;;11.45;8.82;;;6.70;99.90;;;;;;5076373;28;20642;-73
2022/11/11 01:08:04;;;;;;;46.28;11.90;;;6.80;99.90;;;;;;5088147;28;20194;-73
2022/11/11 01:10:40;;;;;;;12.93;8.90;;;6.70;99.90;;;;;;5086026;28;20305;-73
2022/11/11 01:13:26;;;;;;;23.63;10.75;;;6.80;99.90;;;;;;5081235;28;20268;-73
2022/11/11 01:15:56;;;;;;;32.65;10.23;;;6.80;99.90;;;;;;5082589;28;20705;-72
2022/11/11 01:18:24;;;;;;;23.48;10.18;;;6.80;99.90;;;;;;5083387;28;20223;-72
2022/11/11 01:21:04;;;;;;;31.60;11.13;;;6.80;99.90;;;;;;5076345;28;20176;-72
2022/11/11 01:23:33;;;;;;;37.22;11.45;;;6.80;99.90;;;;;;5063306;28;20178;-73
2022/11/11 01:26:20;;;;;;;10.15;9.23;;;6.80;99.90;;;;;;5072154;28;20179;-73
2022/11/11 01:28:52;;;;;;;27.48;10.45;;;6.80;99.90;;;;;;5073156;28;20199;-73
2022/11/11 01:31:20;;;;;;;47.70;11.95;;;6.80;99.90;;;;;;5069616;28;20191;-73
2022/11/11 01:33:46;;;;;;;12.55;9.73;;;6.80;99.90;;;;;;5071130;28;20167;-73
2022/11/11 01:36:21;;;;;;;33.75;10.23;;;6.80;99.90;;;;;;5073865;28;20188;-73
2022/11/11 01:38:49;;;;;;;27.63;10.35;;;6.80;99.90;;;;;;5065130;28;20198;-73
2022/11/11 01:41:32;;;;;;;42.30;11.88;;;6.80;99.90;;;;;;5071058;28;20681;-73
2022/11/11 01:44:16;;;;;;;42.35;13.35;;;6.80;99.90;;;;;;5072802;28;20183;-73
2022/11/11 01:46:47;;;;;;;46.80;11.70;;;6.70;99.90;;;;;;5071992;28;20598;-73
2022/11/11 01:49:34;;;;;;;27.17;10.75;;;6.70;99.90;;;;;;5072648;28;20202;-73
2022/11/11 01:52:03;;;;;;;13.45;10.43;;;6.70;99.90;;;;;;5068875;28;20178;-73
2022/11/11 01:54:47;;;;;;;20.05;11.27;;;6.80;99.90;;;;;;5067059;28;20190;-73
2022/11/11 01:57:20;;;;;;;18.00;10.63;;;6.90;99.90;;;;;;5069519;28;20206;-73
2022/11/11 01:59:51;;;;;;;14.80;10.43;;;6.90;99.90;;;;;;5071202;28;20171;-73
2022/11/11 02:02:25;;;;;;;11.98;10.77;;;6.90;99.90;;;;;;5072318;28;20214;-73
2022/11/11 02:07:36;;;;;;;36.15;13.18;;;7.00;99.90;;;;;;5073043;28;20226;-73
2022/11/11 02:10:05;;;;;;;24.05;11.55;;;7.00;99.90;;;;;;5069896;28;20203;-73
2022/11/11 02:15:15;;;;;;;44.75;12.65;;;7.10;99.90;;;;;;5072596;28;20185;-73
2022/11/11 02:17:41;;;;;;;16.58;10.20;;;7.10;99.90;;;;;;5062886;28;20195;-73
2022/11/11 02:20:09;;;;;;;12.30;10.23;;;7.20;99.90;;;;;;5068624;28;20676;-73
2022/11/11 02:22:48;;;;;;;15.43;10.88;;;7.10;99.90;;;;;;5067647;28;20255;-73
2022/11/11 02:25:17;;;;;;;15.43;10.60;;;7.20;99.90;;;;;;5062347;28;20191;-73
2022/11/11 02:27:46;;;;;;;22.42;11.85;;;7.20;99.90;;;;;;5058683;28;20199;-73
2022/11/11 02:30:14;;;;;;;60.38;14.80;;;7.20;99.90;;;;;;5065377;28;20196;-73
2022/11/11 02:32:45;;;;;;;46.53;13.52;;;7.10;99.90;;;;;;5061193;28;20176;-73
2022/11/11 02:35:17;;;;;;;35.55;13.02;;;7.10;99.90;;;;;;5065574;28;20230;-73
2022/11/11 02:37:50;;;;;;;41.78;14.32;;;7.10;99.90;;;;;;5059384;28;20218;-73
2022/11/11 02:40:24;;;;;;;16.23;11.70;;;7.10;99.90;;;;;;5064706;28;20188;-73
2022/11/11 02:42:50;;;;;;;23.60;11.45;;;7.20;99.90;;;;;;5068652;28;20182;-73
2022/11/11 02:45:16;;;;;;;18.85;13.48;;;7.10;99.90;;;;;;5070393;28;20229;-73
2022/11/11 02:47:41;;;;;;;45.38;14.15;;;7.10;99.90;;;;;;5074175;28;20305;-73
2022/11/11 02:50:07;;;;;;;15.63;12.90;;;7.10;99.90;;;;;;5088672;28;20206;-73
2022/11/11 02:52:33;;;;;;;31.70;13.30;;;7.00;99.90;;;;;;5083556;28;20175;-73
2022/11/11 02:54:59;;;;;;;33.72;13.48;;;7.00;99.90;;;;;;5086997;28;20170;-73
2022/11/11 02:57:25;;;;;;;33.63;13.25;;;7.00;99.90;;;;;;5084136;28;20559;-73
2022/11/11 02:59:50;;;;;;;33.38;13.02;;;7.00;99.90;;;;;;5080847;28;20540;-73
2022/11/11 03:02:16;;;;;;;23.10;14.30;;;6.90;99.90;;;;;;5069831;28;20175;-73
2022/11/11 03:04:42;;;;;;;46.47;14.85;;;6.90;99.90;;;;;;5083754;28;20178;-73
2022/11/11 03:07:07;;;;;;;14.35;11.88;;;6.90;99.90;;;;;;5074354;28;20195;-73
2022/11/11 03:09:33;;;;;;;16.88;12.80;;;7.00;99.90;;;;;;5081900;28;20198;-73
2022/11/11 03:11:58;;;;;;;45.83;14.25;;;7.10;99.90;;;;;;5084763;28;20230;-73
2022/11/11 03:14:24;;;;;;;24.95;12.57;;;7.00;99.90;;;;;;5080113;28;20177;-73
2022/11/11 03:19:34;;;;;;;36.80;13.32;;;7.00;99.90;;;;;;5058328;28;20216;-74
2022/11/11 03:22:01;;;;;;;16.67;10.55;;;7.00;99.90;;;;;;5078314;28;20179;-73
2022/11/11 03:25:36;;;;;;;25.40;11.73;;;6.90;99.90;;;;;;5080868;28;20175;-73
2022/11/11 03:27:13;;;;;;;16.70;11.68;;;7.00;99.90;;;;;;5074042;28;20211;-73
2022/11/11 03:29:38;;;;;;;43.47;12.77;;;7.00;99.90;;;;;;5081256;28;20205;-73
2022/11/11 03:32:05;;;;;;;22.05;12.20;;;6.90;99.90;;;;;;5080418;28;20691;-73
2022/11/11 03:34:31;;;;;;;20.60;11.88;;;6.90;99.90;;;;;;5068511;28;20190;-73
2022/11/11 03:39:40;;;;;;;12.73;11.43;;;6.80;99.90;;;;;;5078746;28;20189;-73
2022/11/11 03:42:06;;;;;;;15.77;12.25;;;6.80;99.90;;;;;;5075494;28;20549;-73
2022/11/11 03:44:31;;;;;;;25.27;12.07;;;6.80;99.90;;;;;;5076002;28;20182;-73
2022/11/11 03:46:57;;;;;;;18.92;11.63;;;6.80;99.90;;;;;;5075067;28;20225;-73
2022/11/11 03:49:23;;;;;;;18.25;11.43;;;6.80;99.90;;;;;;5063894;28;20237;-73
2022/11/11 03:51:48;;;;;;;12.05;10.63;;;6.80;99.90;;;;;;5064755;28;20595;-73
2022/11/11 03:54:14;;;;;;;14.23;10.85;;;6.90;99.90;;;;;;5071659;28;20179;-73
2022/11/11 03:56:39;;;;;;;20.25;11.10;;;6.90;99.90;;;;;;5087040;28;20253;-73
2022/11/11 03:59:05;;;;;;;15.02;10.05;;;6.90;99.90;;;;;;5073965;28;20200;-74
2022/11/11 04:12:27;;;;;;;27.00;10.75;;;6.70;99.90;;;;;;5067305;28;20178;-74
2022/11/11 04:17:37;;;;;;;36.00;10.30;;;6.60;99.90;;;;;;5064351;28;20718;-73
2022/11/11 04:22:47;;;;;;;21.13;10.93;;;6.60;99.90;;;;;;5080151;28;20185;-74
2022/11/11 04:30:42;;;;;;;13.80;9.43;;;6.50;99.90;;;;;;5077764;28;20232;-72
2022/11/11 04:33:08;;;;;;;18.83;10.60;;;6.50;99.90;;;;;;5085609;28;20186;-72
2022/11/11 04:35:33;;;;;;;41.38;12.35;;;6.60;99.90;;;;;;5084302;28;20174;-73
2022/11/11 04:43:30;;;;;;;15.80;10.10;;;6.70;99.90;;;;;;5069182;28;20202;-73
2022/11/11 04:45:59;;;;;;;10.98;9.15;;;6.60;99.90;;;;;;5076270;28;20217;-73
2022/11/11 04:48:25;;;;;;;14.85;8.98;;;6.50;99.90;;;;;;5076481;28;20224;-73
2022/11/11 04:50:51;;;;;;;17.95;10.00;;;6.50;99.90;;;;;;5086692;28;20619;-73
2022/11/11 04:53:17;;;;;;;13.60;9.77;;;6.50;99.90;;;;;;5081515;28;20250;-73
2022/11/11 04:58:30;;;;;;;25.10;9.80;;;6.40;99.90;;;;;;5079769;28;20210;-73
2022/11/11 05:00:56;;;;;;;20.40;10.05;;;6.30;99.90;;;;;;5069645;28;20183;-73
2022/11/11 05:03:25;;;;;;;11.50;9.40;;;6.30;99.90;;;;;;5083972;28;20191;-73
2022/11/11 05:09:00;;;;;;;17.20;9.48;;;6.20;99.90;;;;;;5073397;28;20621;-72
2022/11/11 05:11:35;;;;;;;9.20;8.35;;;6.30;99.90;;;;;;5074235;28;20226;-72
2022/11/11 05:22:38;;;;;;;19.50;10.88;;;6.30;99.90;;;;;;5085859;28;20189;-73
2022/11/11 05:27:49;;;;;;;22.48;10.85;;;6.20;99.90;;;;;;5083775;28;20232;-73
2022/11/11 05:30:16;;;;;;;14.00;9.93;;;6.10;99.90;;;;;;5087681;28;20214;-73
2022/11/11 05:32:42;;;;;;;15.13;10.18;;;6.20;99.90;;;;;;5084291;28;20202;-72
2022/11/11 05:35:11;;;;;;;18.55;11.25;;;6.20;99.90;;;;;;5085245;28;20198;-73
2022/11/11 05:37:36;;;;;;;20.95;11.60;;;6.20;99.90;;;;;;5080129;28;20670;-73
2022/11/11 05:40:02;;;;;;;18.65;11.98;;;6.10;99.90;;;;;;5086740;28;20261;-72
2022/11/11 05:42:28;;;;;;;26.92;10.70;;;6.10;99.90;;;;;;5089894;28;20218;-73
2022/11/11 05:44:53;;;;;;;28.05;12.52;;;6.20;99.90;;;;;;5075579;28;20180;-72
2022/11/11 05:47:19;;;;;;;26.05;12.15;;;6.20;99.90;;;;;;5086647;28;20203;-73
2022/11/11 05:49:45;;;;;;;28.33;11.38;;;6.20;99.90;;;;;;5071038;28;20233;-73
2022/11/11 05:52:12;;;;;;;22.50;11.13;;;6.20;99.90;;;;;;5081929;28;20719;-73
2022/11/11 05:54:37;;;;;;;15.40;11.32;;;6.20;99.90;;;;;;5070546;28;20175;-72
2022/11/11 05:57:03;;;;;;;20.17;11.10;;;6.30;99.90;;;;;;5082175;28;20186;-72
2022/11/11 05:59:29;;;;;;;34.92;12.20;;;6.40;99.90;;;;;;5086507;28;20178;-73
2022/11/11 06:01:55;;;;;;;23.20;10.77;;;6.30;99.90;;;;;;5087296;28;20261;-73
2022/11/11 06:04:21;;;;;;;41.75;13.60;;;6.30;99.90;;;;;;5069889;28;20193;-73
2022/11/11 06:06:46;;;;;;;15.13;10.43;;;6.30;99.90;;;;;;5073115;28;20576;-73
2022/11/11 06:09:12;;;;;;;46.25;12.40;;;6.30;99.90;;;;;;5057641;28;20677;-73
2022/11/11 06:11:37;;;;;;;44.30;13.40;;;6.40;99.90;;;;;;5066490;28;20217;-73
2022/11/11 06:14:04;;;;;;;34.92;13.48;;;6.40;99.90;;;;;;5066669;28;20222;-73
2022/11/11 06:16:29;;;;;;;39.35;12.93;;;6.30;99.90;;;;;;5072606;28;20215;-73
2022/11/11 06:18:55;;;;;;;26.42;12.02;;;6.30;99.90;;;;;;5064337;28;20213;-72
2022/11/11 06:21:20;;;;;;;49.50;13.98;;;6.30;99.90;;;;;;5070195;28;20175;-73
2022/11/11 06:23:46;;;;;;;21.88;12.18;;;6.30;99.90;;;;;;5070707;28;20179;-74
2022/11/11 06:26:12;;;;;;;31.63;11.82;;;6.40;99.90;;;;;;5067395;28;20694;-74
2022/11/11 06:28:47;;;;;;;28.13;11.15;;;6.40;99.90;;;;;;5071021;28;20203;-75
2022/11/11 06:31:26;;;;;;;18.35;10.68;;;6.40;99.90;;;;;;5066165;28;20203;-75
2022/11/11 06:33:52;;;;;;;16.95;9.65;;;6.40;99.90;;;;;;5064653;28;20182;-75
2022/11/11 06:36:20;;;;;;;19.73;10.65;;;6.40;99.90;;;;;;5076824;28;20207;-74
2022/11/11 06:38:46;;;;;;;23.15;10.95;;;6.40;99.90;;;;;;5066259;28;20207;-75
2022/11/11 06:41:12;;;;;;;24.45;10.95;;;6.50;99.90;;;;;;5064527;28;20188;-74
2022/11/11 06:43:42;;;;;;;18.95;10.93;;;6.50;99.90;;;;;;5072629;28;20183;-75
2022/11/11 06:46:16;;;;;;;24.83;12.02;;;6.50;99.90;;;;;;5071321;28;20257;-80
2022/11/11 06:48:42;;;;;;;26.73;11.63;;;6.40;99.90;;;;;;5082103;28;20222;-79
2022/11/11 06:51:10;;;;;;;21.05;11.63;;;6.40;99.90;;;;;;5091902;28;20187;-73
2022/11/11 06:53:35;;;;;;;20.05;11.82;;;6.40;99.90;;;;;;5083189;28;20252;-74
2022/11/11 06:56:01;;;;;;;13.85;11.07;;;6.40;99.90;;;;;;5072664;28;20610;-74
2022/11/11 06:58:27;;;;;;;20.00;11.90;;;6.40;99.90;;;;;;5084126;28;20194;-73
2022/11/11 07:00:52;;;;;;;19.58;12.00;;;6.50;99.90;;;;;;5089104;28;20175;-73
2022/11/11 07:03:20;;;;;;;23.77;12.05;;;6.40;99.90;;;;;;5077936;28;20187;-72
2022/11/11 07:05:46;;;;;;;24.77;12.38;;;6.60;99.90;;;;;;5063286;28;20662;-73
2022/11/11 07:08:14;;;;;;;26.55;12.88;;;6.70;99.90;;;;;;5070684;28;20202;-79
2022/11/11 07:10:44;;;;;;;22.00;12.82;;;6.60;99.90;;;;;;5067232;28;20297;-80
2022/11/11 07:13:09;;;;;;;18.92;12.93;;;6.60;99.90;;;;;;5071987;28;20176;-81
2022/11/11 07:15:36;;;;;;;15.90;12.38;;;6.50;99.90;;;;;;5078657;28;20171;-82
2022/11/11 07:18:02;;;;;;;17.13;12.98;;;6.60;99.90;;;;;;5086501;28;20214;-82
2022/11/11 07:20:28;;;;;;;21.95;14.20;;;6.60;99.90;;;;;;5075824;28;20179;-81
2022/11/11 07:22:53;;;;;;;19.92;13.23;;;6.70;99.90;;;;;;5074050;28;20203;-82
2022/11/11 07:25:19;;;;;;;16.25;12.70;;;6.70;99.90;;;;;;5071538;28;20281;-81
2022/11/11 07:27:45;;;;;;;18.50;12.23;;;6.80;99.90;;;;;;5078942;28;20206;-81
2022/11/11 07:30:11;;;;;;;17.90;13.07;;;6.80;99.90;;;;;;5086228;28;20221;-80
2022/11/11 07:32:44;;;;;;;15.48;11.63;;;6.70;99.90;;;;;;5083682;28;20179;-80
2022/11/11 07:35:10;;;;;;;18.65;11.85;;;6.80;99.90;;;;;;5088800;28;20177;-80
2022/11/11 07:37:36;;;;;;;12.40;10.82;;;7.00;99.90;;;;;;5074034;28;20191;-74
2022/11/11 07:40:02;;;;;;;12.93;10.95;;;7.00;99.90;;;;;;5082819;28;20178;-73
2022/11/11 07:42:28;;;;;;;13.07;10.43;;;6.90;99.90;;;;;;5082551;28;20545;-73
2022/11/11 07:44:54;;;;;;;12.00;10.63;;;7.10;99.90;;;;;;5072999;28;20187;-76
2022/11/11 07:47:19;;;;;;;12.75;10.98;;;7.20;99.90;;;;;;5069425;28;20260;-76
2022/11/11 07:49:45;;;;;;;15.68;10.82;;;7.30;99.90;;;;;;5075554;28;20194;-75
2022/11/11 07:52:10;;;;;;;17.00;11.52;;;7.40;99.90;;;;;;5077117;28;20183;-76
2022/11/11 07:54:36;;;;;;;20.83;10.82;;;7.40;99.90;;;;;;5063343;28;20178;-77
2022/11/11 07:57:02;;;;;;;11.40;9.80;;;7.30;99.90;;;;;;5068502;28;20225;-76
2022/11/11 07:59:27;;;;;;;17.73;10.80;;;7.10;99.90;;;;;;5077090;28;20479;-75
2022/11/11 08:01:53;;;;;;;26.48;9.95;;;7.20;99.90;;;;;;5069196;28;20274;-73
2022/11/11 08:04:18;;;;;;;11.32;10.20;;;7.30;99.90;;;;;;5084345;28;20188;-73
2022/11/11 08:06:44;;;;;;;13.20;10.40;;;7.20;99.90;;;;;;5078345;28;20569;-75
2022/11/11 08:09:09;;;;;;;11.10;9.52;;;7.30;99.90;;;;;;5073048;28;20226;-75
2022/11/11 08:14:19;;;;;;;10.07;9.05;;;7.30;99.90;;;;;;5077476;28;20213;-76
2022/11/11 08:16:44;;;;;;;10.43;9.15;;;7.40;99.90;;;;;;5075883;28;20254;-75
2022/11/11 08:19:10;;;;;;;10.85;9.70;;;7.50;99.90;;;;;;5072493;28;20444;-75
2022/11/11 08:21:36;;;;;;;16.17;8.70;;;7.50;99.90;;;;;;5083133;28;20174;-76
2022/11/11 08:24:02;;;;;;;14.48;8.25;;;7.50;99.90;;;;;;5069523;28;20183;-76
2022/11/11 08:26:28;;;;;;;15.65;9.75;;;7.40;99.90;;;;;;5072438;28;20184;-75
2022/11/11 08:28:54;;;;;;;10.25;8.88;;;7.40;99.90;;;;;;5069503;28;20214;-75
2022/11/11 08:31:19;;;;;;;9.32;7.72;;;7.40;99.90;;;;;;5068137;28;20701;-76
2022/11/11 08:33:45;;;;;;;7.90;7.15;;;7.40;99.90;;;;;;5069715;28;20176;-78
2022/11/11 08:36:11;;;;;;;8.60;7.80;;;7.50;99.90;;;;;;5072306;28;20179;-77
2022/11/11 08:38:37;;;;;;;8.63;7.70;;;7.60;99.90;;;;;;5070995;28;20321;-76
2022/11/11 08:41:05;;;;;;;8.23;7.32;;;7.60;99.90;;;;;;5067045;28;20210;-76
2022/11/11 08:43:31;;;;;;;11.90;8.60;;;7.60;99.90;;;;;;5074646;28;20205;-76
2022/11/11 08:45:58;;;;;;;9.27;7.97;;;7.60;99.90;;;;;;5067038;28;20561;-78
2022/11/11 08:48:24;;;;;;;9.07;8.27;;;7.40;99.90;;;;;;5073236;28;20214;-80
2022/11/11 08:50:52;;;;;;;8.93;8.10;;;7.30;99.90;;;;;;5065793;28;20624;-77
2022/11/11 08:53:18;;;;;;;12.63;7.85;;;7.30;99.90;;;;;;5076762;28;20183;-76
2022/11/11 08:55:44;;;;;;;14.82;8.70;;;7.30;99.90;;;;;;5074502;28;20587;-77
2022/11/11 08:58:10;;;;;;;9.48;8.15;;;7.30;99.90;;;;;;5084718;28;20198;-76
2022/11/11 09:00:36;;;;;;;8.50;7.65;;;7.30;99.90;;;;;;5076807;28;20284;-78
2022/11/11 09:03:04;;;;;;;10.68;8.80;;;7.30;99.90;;;;;;5069365;28;20747;-75
2022/11/11 09:05:29;;;;;;;11.88;8.02;;;7.30;99.90;;;;;;5066904;28;20239;-75
2022/11/11 09:07:55;;;;;;;11.90;10.70;;;7.40;99.90;;;;;;5067281;28;20298;-79
2022/11/11 09:10:21;;;;;;;9.77;8.88;;;7.60;99.90;;;;;;5070828;28;20231;-78
2022/11/11 09:12:47;;;;;;;9.10;8.30;;;7.60;99.90;;;;;;5064999;28;20203;-76
2022/11/11 09:15:12;;;;;;;13.95;8.35;;;7.80;99.90;;;;;;5077018;28;20179;-80
2022/11/11 09:17:38;;;;;;;9.30;8.05;;;7.90;99.90;;;;;;5082453;28;20201;-75
2022/11/11 09:20:04;;;;;;;8.75;7.93;;;7.90;99.90;;;;;;5075221;28;20179;-76
2022/11/11 09:22:30;;;;;;;9.73;8.00;;;8.10;99.90;;;;;;5073591;28;20187;-78
2022/11/11 09:24:55;;;;;;;9.30;8.50;;;8.20;99.90;;;;;;5069671;28;20191;-76
2022/11/11 09:27:21;;;;;;;7.70;7.10;;;8.30;99.90;;;;;;5086796;28;20220;-77
2022/11/11 09:29:48;;;;;;;8.25;7.45;;;8.30;99.90;;;;;;5077595;28;20210;-76
2022/11/11 09:32:13;;;;;;;8.30;7.50;;;8.40;99.90;;;;;;5072427;28;20705;-75
2022/11/11 09:34:39;;;;;;;9.77;7.63;;;8.50;99.90;;;;;;5079078;28;20199;-74
2022/11/11 09:37:04;;;;;;;10.70;7.88;;;8.60;99.90;;;;;;5087839;28;20592;-75
2022/11/11 09:39:30;;;;;;;7.90;7.10;;;8.80;99.90;;;;;;5088562;28;20274;-75
2022/11/11 09:42:32;;;;;;;7.90;7.20;;;9.00;99.90;;;;;;5077599;28;20186;-76
2022/11/11 09:45:06;;;;;;;7.95;7.15;;;9.30;99.90;;;;;;5075854;28;20190;-75
2022/11/11 09:48:06;;;;;;;7.80;7.03;;;9.60;99.90;;;;;;5077300;28;20221;-75
2022/11/11 09:50:35;;;;;;;8.30;7.60;;;9.70;99.90;;;;;;5075120;28;20645;-77
2022/11/11 09:53:17;;;;;;;8.25;7.55;;;9.90;99.90;;;;;;5087244;28;20185;-75
2022/11/11 09:55:50;;;;;;;7.50;6.85;;;9.90;99.90;;;;;;5077315;28;20232;-75
2022/11/11 09:58:20;;;;;;;8.48;7.68;;;10.10;99.90;;;;;;5079973;28;20214;-76
2022/11/11 10:00:55;;;;;;;8.20;7.55;;;10.30;99.90;;;;;;5077708;28;20172;-76
2022/11/11 10:03:24;;;;;;;9.40;7.55;;;10.40;99.90;;;;;;5085394;28;20602;-76
2022/11/11 10:06:03;;;;;;;6.63;6.03;;;10.30;99.90;;;;;;5091467;28;20558;-77
2022/11/11 10:09:01;;;;;;;8.25;7.38;;;10.30;99.90;;;;;;5081538;28;20213;-76
2022/11/11 10:11:57;;;;;;;7.38;6.78;;;10.20;99.90;;;;;;5056683;28;20219;-76
2022/11/11 10:14:26;;;;;;;7.60;6.90;;;10.20;99.90;;;;;;5090723;28;20175;-77
2022/11/11 10:16:52;;;;;;;8.35;7.65;;;10.20;99.90;;;;;;5061063;28;20187;-77
2022/11/11 10:19:17;;;;;;;8.98;8.07;;;10.10;99.90;;;;;;5082848;28;20771;-77
2022/11/11 10:21:54;;;;;;;7.10;6.50;;;10.20;99.90;;;;;;5085476;28;20300;-76
2022/11/11 10:24:33;;;;;;;7.65;7.05;;;10.30;99.90;;;;;;5083914;28;20193;-77
2022/11/11 10:27:18;;;;;;;8.48;7.78;;;10.30;99.90;;;;;;5073326;28;20257;-77
2022/11/11 10:29:45;;;;;;;7.07;6.47;;;10.30;99.90;;;;;;5083275;28;20190;-76
2022/11/11 10:32:21;;;;;;;7.28;6.63;;;10.40;99.90;;;;;;5066150;28;20585;-76
2022/11/11 10:34:47;;;;;;;7.70;7.00;;;10.70;99.90;;;;;;5068948;28;20179;-76
2022/11/11 10:37:23;;;;;;;8.27;7.47;;;10.80;99.90;;;;;;5064666;28;20325;-76
2022/11/11 10:40:06;;;;;;;7.65;6.95;;;10.70;99.90;;;;;;5079277;28;20688;-76
2022/11/11 10:42:32;;;;;;;7.50;6.80;;;10.80;99.90;;;;;;5086219;28;20553;-78
2022/11/11 10:44:59;;;;;;;7.25;6.53;;;10.80;99.90;;;;;;5080779;28;20202;-79
2022/11/11 10:47:43;;;;;;;8.55;7.75;;;10.80;99.90;;;;;;5080330;28;20199;-81
2022/11/11 10:50:25;;;;;;;8.23;7.45;;;10.80;99.90;;;;;;5067766;28;20214;-76
2022/11/11 10:52:59;;;;;;;8.43;7.57;;;11.00;99.90;;;;;;5078885;28;20166;-78
2022/11/11 10:55:40;;;;;;;7.57;6.97;;;11.10;99.90;;;;;;5070424;28;20198;-77
2022/11/11 10:58:20;;;;;;;7.55;6.95;;;11.10;99.90;;;;;;5072137;28;20191;-78
2022/11/11 11:00:49;;;;;;;9.02;8.23;;;11.10;99.90;;;;;;5067330;28;20171;-77
2022/11/11 11:03:31;;;;;;;9.25;8.45;;;11.00;99.90;;;;;;5066017;28;20189;-77
2022/11/11 11:06:12;;;;;;;9.52;8.63;;;11.00;99.90;;;;;;5069240;28;20179;-77
2022/11/11 11:08:44;;;;;;;9.32;8.52;;;10.90;99.90;;;;;;5057682;28;20203;-77
2022/11/11 11:11:38;;;;;;;9.77;8.77;;;10.90;99.90;;;;;;5056540;28;20184;-77
2022/11/11 11:14:10;;;;;;;9.52;8.52;;;10.80;99.90;;;;;;5074815;28;20175;-77
2022/11/11 11:16:43;;;;;;;10.95;9.63;;;11.00;99.90;;;;;;5080836;28;20179;-77
2022/11/11 11:19:19;;;;;;;10.98;9.15;;;10.90;99.90;;;;;;5078456;28;20240;-79
2022/11/11 11:21:56;;;;;;;9.23;8.43;;;10.90;99.90;;;;;;5064464;28;20186;-78
2022/11/11 11:24:31;;;;;;;10.05;9.07;;;10.90;99.90;;;;;;5081811;28;20181;-78
2022/11/11 11:27:02;;;;;;;10.60;9.60;;;10.90;99.90;;;;;;5085280;28;20174;-78
2022/11/11 11:29:41;;;;;;;10.15;9.10;;;11.00;99.90;;;;;;5074249;28;20211;-78
2022/11/11 11:32:15;;;;;;;9.70;8.70;;;11.10;99.90;;;;;;5071086;28;20186;-79
2022/11/11 11:34:50;;;;;;;9.32;8.50;;;11.10;99.90;;;;;;5072214;28;20166;-79
2022/11/11 11:37:18;;;;;;;9.52;8.52;;;11.00;99.90;;;;;;5073630;28;20256;-79
2022/11/11 11:39:44;;;;;;;9.27;8.38;;;11.10;99.90;;;;;;5070153;28;20626;-78
2022/11/11 11:42:32;;;;;;;8.15;7.50;;;11.10;99.90;;;;;;5060346;28;20523;-78
2022/11/11 11:45:22;;;;;;;9.57;8.68;;;11.20;99.90;;;;;;5070512;28;20612;-78
2022/11/11 11:47:53;;;;;;;7.85;7.10;;;11.20;99.90;;;;;;5066264;28;20237;-79
2022/11/11 11:50:34;;;;;;;9.77;8.73;;;11.20;99.90;;;;;;5063066;28;20205;-79
2022/11/11 11:53:48;;;;;;;10.35;9.38;;;11.20;99.90;;;;;;5064420;28;20206;-78
2022/11/11 11:56:19;;;;;;;9.00;8.20;;;11.00;99.90;;;;;;5074917;28;20209;-79
2022/11/11 11:59:04;;;;;;;11.55;9.38;;;11.00;99.90;;;;;;5072212;28;20188;-78
2022/11/11 12:02:00;;;;;;;10.77;9.73;;;10.80;99.90;;;;;;5062058;28;20190;-78
2022/11/11 12:04:43;;;;;;;10.20;9.20;;;10.60;99.90;;;;;;5078846;28;20669;-78
2022/11/11 12:07:30;;;;;;;10.80;9.70;;;10.60;99.90;;;;;;5084782;28;20184;-78
2022/11/11 12:10:23;;;;;;;10.68;9.60;;;10.60;99.90;;;;;;5064868;28;20199;-76
2022/11/11 12:13:01;;;;;;;10.48;9.48;;;10.40;99.90;;;;;;5060878;28;20167;-77
2022/11/11 12:15:40;;;;;;;11.45;10.25;;;10.40;99.90;;;;;;5066348;28;20181;-76
2022/11/11 12:18:09;;;;;;;11.70;10.50;;;10.10;99.90;;;;;;5064814;28;20194;-76
2022/11/11 12:20:44;;;;;;;12.15;10.95;;;10.00;99.90;;;;;;5082392;28;20188;-76
2022/11/11 12:23:40;;;;;;;13.80;10.95;;;9.90;99.90;;;;;;5061310;28;20186;-75
2022/11/11 12:26:31;;;;;;;11.25;10.05;;;10.00;99.90;;;;;;5054341;28;20191;-77
2022/11/11 12:29:46;;;;;;;12.80;10.50;;;10.10;99.90;;;;;;5053910;28;20208;-77
2022/11/11 12:32:30;;;;;;;12.20;10.90;;;10.20;99.90;;;;;;5069791;28;20175;-76
2022/11/11 12:35:14;;;;;;;13.35;10.45;;;10.40;99.90;;;;;;5064890;28;20256;-75
2022/11/11 12:38:08;;;;;;;12.10;9.93;;;10.50;99.90;;;;;;5073028;28;20586;-77
2022/11/11 12:40:45;;;;;;;11.82;9.93;;;10.50;99.90;;;;;;5070942;28;20274;-77
2022/11/11 12:43:24;;;;;;;10.57;9.43;;;10.50;99.90;;;;;;5076791;28;20185;-77
2022/11/11 12:46:04;;;;;;;10.80;9.60;;;10.50;99.90;;;;;;5065472;28;20280;-77
2022/11/11 12:48:55;;;;;;;11.77;9.93;;;10.60;99.90;;;;;;5064726;28;20603;-77
2022/11/11 12:51:40;;;;;;;10.63;9.15;;;10.80;99.90;;;;;;5070259;28;20190;-77
2022/11/11 12:54:31;;;;;;;10.82;9.60;;;10.80;99.90;;;;;;5064390;28;20733;-77
2022/11/11 12:56:59;;;;;;;10.70;9.70;;;10.70;99.90;;;;;;5070214;28;20201;-77
2022/11/11 12:59:38;;;;;;;10.82;9.70;;;10.70;99.90;;;;;;5063821;28;20175;-77
2022/11/11 13:02:34;;;;;;;10.82;9.40;;;10.70;99.90;;;;;;5070994;28;20177;-76
2022/11/11 13:05:18;;;;;;;12.02;9.93;;;10.90;99.90;;;;;;5062931;28;20207;-76
2022/11/11 13:07:49;;;;;;;13.27;11.85;;;10.80;99.90;;;;;;5065982;28;20203;-76
2022/11/11 13:10:48;;;;;;;11.98;10.65;;;10.70;99.90;;;;;;5065600;28;20542;-75
2022/11/11 13:13:48;;;;;;;12.88;10.48;;;10.40;99.90;;;;;;5057512;28;20172;-75
2022/11/11 13:16:16;;;;;;;13.18;10.27;;;10.40;99.90;;;;;;5070513;28;20209;-76
2022/11/11 13:19:01;;;;;;;12.48;11.15;;;10.50;99.90;;;;;;5058116;28;20808;-75
2022/11/11 13:22:00;;;;;;;11.80;10.02;;;10.60;99.90;;;;;;5069728;28;20171;-76
2022/11/11 13:24:27;;;;;;;11.00;9.75;;;10.60;99.90;;;;;;5070075;28;20168;-76
2022/11/11 13:27:04;;;;;;;12.27;10.95;;;10.60;99.90;;;;;;5067547;28;20199;-75
2022/11/11 13:29:50;;;;;;;12.65;10.93;;;10.40;99.90;;;;;;5060263;28;20204;-75
2022/11/11 13:32:21;;;;;;;16.15;12.23;;;10.30;99.90;;;;;;5078156;28;20612;-76
2022/11/11 13:34:49;;;;;;;13.48;11.80;;;10.40;99.90;;;;;;5074968;28;20166;-76
2022/11/11 13:37:31;;;;;;;12.73;10.43;;;10.50;99.90;;;;;;5071986;28;20207;-76
2022/11/11 13:40:07;;;;;;;14.90;11.98;;;10.60;99.90;;;;;;5073321;28;20197;-76
2022/11/11 13:42:41;;;;;;;13.02;11.50;;;10.40;99.90;;;;;;5071474;28;20249;-76
2022/11/11 13:45:18;;;;;;;12.00;10.75;;;10.50;99.90;;;;;;5060355;28;20188;-76
2022/11/11 13:47:46;;;;;;;12.82;11.20;;;10.40;99.90;;;;;;5066270;28;20305;-76
2022/11/11 13:50:26;;;;;;;14.35;12.75;;;10.40;99.90;;;;;;5069113;28;20199;-76
2022/11/11 13:53:14;;;;;;;13.43;11.30;;;10.30;99.90;;;;;;5075610;28;20303;-77
2022/11/11 13:55:42;;;;;;;15.07;12.35;;;10.30;99.90;;;;;;5076448;28;20210;-77
2022/11/11 13:58:25;;;;;;;17.02;14.13;;;10.20;99.90;;;;;;5076695;28;20605;-78
2022/11/11 14:01:00;;;;;;;15.55;12.52;;;10.20;99.90;;;;;;5071278;28;20179;-76
2022/11/11 14:03:25;;;;;;;12.88;11.52;;;10.10;99.90;;;;;;5073255;28;20269;-76
2022/11/11 14:06:12;;;;;;;13.32;11.68;;;10.20;99.90;;;;;;5080088;28;20274;-79
2022/11/11 14:08:49;;;;;;;15.25;13.18;;;10.30;99.90;;;;;;5079297;28;20202;-75
2022/11/11 14:11:26;;;;;;;17.45;13.57;;;10.10;99.90;;;;;;5075247;28;20268;-75
2022/11/11 14:13:54;;;;;;;17.25;12.75;;;9.90;99.90;;;;;;5082182;28;20704;-75